createdAt,value
2024-03-18T00:00:49.981Z,94645.00
2024-03-18T00:01:50.091Z,94644.00
2024-03-18T00:02:50.119Z,94642.00
2024-03-18T00:03:50.180Z,94645.00
2024-03-18T00:04:50.299Z,94643.00
2024-03-18T00:05:50.308Z,94645.00
2024-03-18T00:06:50.383Z,94645.00
2024-03-18T00:07:50.456Z,94646.00
2024-03-18T00:08:50.513Z,94646.00
2024-03-18T00:09:50.578Z,94644.00
2024-03-18T00:10:50.712Z,94643.00
2024-03-18T00:11:50.733Z,94641.00
2024-03-18T00:12:50.798Z,94643.00
2024-03-18T00:13:50.878Z,94643.00
2024-03-18T00:14:50.943Z,94643.00
2024-03-18T00:15:51.008Z,94644.00
2024-03-18T00:16:51.077Z,94643.00
2024-03-18T00:17:51.166Z,94642.00
2024-03-18T00:18:51.219Z,94642.00
2024-03-18T00:19:51.286Z,94641.00
2024-03-18T00:20:51.351Z,94641.00
2024-03-18T00:21:51.427Z,94643.00
2024-03-18T00:22:51.487Z,94644.00
2024-03-18T00:23:51.554Z,94643.00
2024-03-18T00:24:51.629Z,94644.00
2024-03-18T00:25:51.697Z,94640.00
2024-03-18T00:26:51.746Z,94641.00
2024-03-18T00:27:51.822Z,94639.00
2024-03-18T00:28:51.896Z,94639.00
2024-03-18T00:29:51.993Z,94639.00
2024-03-18T00:30:52.026Z,94638.00
2024-03-18T00:31:52.085Z,94638.00
2024-03-18T00:32:52.160Z,94638.00
2024-03-18T00:33:52.210Z,94638.00
2024-03-18T00:34:52.313Z,94640.00
2024-03-18T00:35:52.351Z,94638.00
2024-03-18T00:36:52.429Z,94637.00
2024-03-18T00:37:52.498Z,94637.00
2024-03-18T00:38:52.563Z,94635.00
2024-03-18T00:39:52.654Z,94635.00
2024-03-18T00:40:52.701Z,94634.00
2024-03-18T00:41:52.785Z,94633.00
2024-03-18T00:42:52.853Z,94631.00
2024-03-18T00:43:52.912Z,94634.00
2024-03-18T00:44:53.002Z,94633.00
2024-03-18T00:45:53.046Z,94629.00
2024-03-18T00:46:53.143Z,94629.00
2024-03-18T00:47:53.189Z,94628.00
2024-03-18T00:48:53.271Z,94626.00
2024-03-18T00:49:53.357Z,94623.00
2024-03-18T00:50:53.396Z,94624.00
2024-03-18T00:51:53.458Z,94622.00
2024-03-18T00:52:53.553Z,94619.00
2024-03-18T00:53:53.596Z,94618.00
2024-03-18T00:54:53.690Z,94615.00
2024-03-18T00:55:53.733Z,94615.00
2024-03-18T00:56:53.808Z,94615.00
2024-03-18T00:57:53.879Z,94614.00
2024-03-18T00:58:53.948Z,94613.00
2024-03-18T00:59:54.029Z,94613.00
2024-03-18T01:00:54.102Z,94611.00
2024-03-18T01:01:54.145Z,94612.00
2024-03-18T01:02:54.193Z,94610.00
2024-03-18T01:03:54.283Z,94613.00
2024-03-18T01:04:54.357Z,94613.00
2024-03-18T01:05:54.417Z,94614.00
2024-03-18T01:06:54.491Z,94616.00
2024-03-18T01:07:54.553Z,94617.00
2024-03-18T01:08:54.607Z,94615.00
2024-03-18T01:09:54.711Z,94613.00
2024-03-18T01:10:54.757Z,94613.00
2024-03-18T01:11:54.808Z,94612.00
2024-03-18T01:12:54.879Z,94610.00
2024-03-18T01:13:54.940Z,94610.00
2024-03-18T01:14:55.041Z,94608.00
2024-03-18T01:15:55.078Z,94610.00
2024-03-18T01:16:55.144Z,94610.00
2024-03-18T01:17:55.208Z,94609.00
2024-03-18T01:18:55.284Z,94606.00
2024-03-18T01:19:55.363Z,94604.00
2024-03-18T01:20:55.415Z,94602.00
2024-03-18T01:21:55.477Z,94601.00
2024-03-18T01:22:55.554Z,94601.00
2024-03-18T01:23:55.625Z,94599.00
2024-03-18T01:24:55.732Z,94600.00
2024-03-18T01:25:55.773Z,94598.00
2024-03-18T01:26:55.844Z,94597.00
2024-03-18T01:27:55.903Z,94596.00
2024-03-18T01:28:55.954Z,94596.00
2024-03-18T01:29:56.019Z,94593.00
2024-03-18T01:30:56.092Z,94593.00
2024-03-18T01:31:56.167Z,94593.00
2024-03-18T01:32:56.239Z,94591.00
2024-03-18T01:33:56.292Z,94586.00
2024-03-18T01:34:56.395Z,94585.00
2024-03-18T01:35:56.416Z,94582.00
2024-03-18T01:36:56.489Z,94579.00
2024-03-18T01:37:56.575Z,94578.00
2024-03-18T01:38:56.621Z,94578.00
2024-03-18T01:39:56.724Z,94576.00
2024-03-18T01:40:56.754Z,94573.00
2024-03-18T01:41:56.818Z,94575.00
2024-03-18T01:42:56.920Z,94577.00
2024-03-18T01:43:56.959Z,94572.00
2024-03-18T01:44:57.055Z,94572.00
2024-03-18T01:45:57.097Z,94572.00
2024-03-18T01:46:57.148Z,94570.00
2024-03-18T01:47:57.195Z,94569.00
2024-03-18T01:48:57.266Z,94566.00
2024-03-18T01:49:57.328Z,94564.00
2024-03-18T01:50:57.397Z,94563.00
2024-03-18T01:51:57.454Z,94560.00
2024-03-18T01:52:57.520Z,94559.00
2024-03-18T01:53:57.583Z,94558.00
2024-03-18T01:54:57.674Z,94558.00
2024-03-18T01:55:57.724Z,94556.00
2024-03-18T01:56:57.778Z,94555.00
2024-03-18T01:57:57.837Z,94558.00
2024-03-18T01:58:57.906Z,94557.00
2024-03-18T01:59:57.990Z,94555.00
2024-03-18T02:00:58.027Z,94556.00
2024-03-18T02:01:58.093Z,94554.00
2024-03-18T02:02:58.168Z,94556.00
2024-03-18T02:03:58.810Z,94554.00
2024-03-18T02:04:58.280Z,94554.00
2024-03-18T02:05:58.358Z,94554.00
2024-03-18T02:06:58.417Z,94555.00
2024-03-18T02:07:58.485Z,94553.00
2024-03-18T02:08:58.547Z,94553.00
2024-03-18T02:09:58.633Z,94553.00
2024-03-18T02:10:58.679Z,94555.00
2024-03-18T02:11:58.736Z,94554.00
2024-03-18T02:12:58.785Z,94550.00
2024-03-18T02:13:58.842Z,94550.00
2024-03-18T02:14:58.928Z,94550.00
2024-03-18T02:15:58.980Z,94550.00
2024-03-18T02:16:59.062Z,94545.00
2024-03-18T02:17:59.116Z,94544.00
2024-03-18T02:18:59.188Z,94545.00
2024-03-18T02:19:59.243Z,94544.00
2024-03-18T02:20:59.322Z,94545.00
2024-03-18T02:21:59.391Z,94545.00
2024-03-18T02:22:59.461Z,94545.00
2024-03-18T02:23:59.524Z,94546.00
2024-03-18T02:24:59.585Z,94543.00
2024-03-18T02:25:59.648Z,94542.00
2024-03-18T02:26:59.692Z,94540.00
2024-03-18T02:27:59.779Z,94541.00
2024-03-18T02:28:59.826Z,94540.00
2024-03-18T02:29:59.889Z,94539.00
2024-03-18T02:30:59.954Z,94537.00
2024-03-18T02:32:00.011Z,94535.00
2024-03-18T02:33:00.100Z,94536.00
2024-03-18T02:34:00.213Z,94535.00
2024-03-18T02:35:00.280Z,94533.00
2024-03-18T02:36:00.305Z,94531.00
2024-03-18T02:37:00.366Z,94528.00
2024-03-18T02:38:00.408Z,94527.00
2024-03-18T02:39:00.467Z,94524.00
2024-03-18T02:40:00.546Z,94521.00
2024-03-18T02:41:00.600Z,94522.00
2024-03-18T02:42:00.644Z,94521.00
2024-03-18T02:43:00.706Z,94521.00
2024-03-18T02:44:00.795Z,94520.00
2024-03-18T02:45:00.848Z,94522.00
2024-03-18T02:46:00.891Z,94524.00
2024-03-18T02:47:00.976Z,94524.00
2024-03-18T02:48:01.020Z,94521.00
2024-03-18T02:49:01.103Z,94520.00
2024-03-18T02:50:01.145Z,94519.00
2024-03-18T02:51:01.218Z,94518.00
2024-03-18T02:52:01.288Z,94515.00
2024-03-18T02:53:01.326Z,94515.00
2024-03-18T02:54:01.405Z,94514.00
2024-03-18T02:55:01.493Z,94512.00
2024-03-18T02:56:01.509Z,94513.00
2024-03-18T02:57:01.584Z,94515.00
2024-03-18T02:58:01.635Z,94516.00
2024-03-18T02:59:01.688Z,94514.00
2024-03-18T03:00:01.756Z,94514.00
2024-03-18T03:01:01.821Z,94511.00
2024-03-18T03:02:01.877Z,94510.00
2024-03-18T03:03:01.940Z,94509.00
2024-03-18T03:04:02.112Z,94509.00
2024-03-18T03:05:02.151Z,94507.00
2024-03-18T03:06:02.132Z,94507.00
2024-03-18T03:07:02.166Z,94507.00
2024-03-18T03:08:02.232Z,94507.00
2024-03-18T03:09:02.274Z,94507.00
2024-03-18T03:10:02.416Z,94506.00
2024-03-18T03:11:02.404Z,94506.00
2024-03-18T03:12:02.463Z,94505.00
2024-03-18T03:13:02.545Z,94502.00
2024-03-18T03:14:02.595Z,94501.00
2024-03-18T03:15:02.700Z,94499.00
2024-03-18T03:16:02.712Z,94496.00
2024-03-18T03:17:02.779Z,94494.00
2024-03-18T03:18:02.830Z,94492.00
2024-03-18T03:19:02.894Z,94491.00
2024-03-18T03:20:02.995Z,94492.00
2024-03-18T03:21:03.003Z,94492.00
2024-03-18T03:22:03.062Z,94491.00
2024-03-18T03:23:03.140Z,94492.00
2024-03-18T03:24:03.163Z,94490.00
2024-03-18T03:25:03.244Z,94490.00
2024-03-18T03:26:03.256Z,94491.00
2024-03-18T03:27:03.332Z,94490.00
2024-03-18T03:28:03.418Z,94488.00
2024-03-18T03:29:03.474Z,94487.00
2024-03-18T03:30:03.557Z,94485.00
2024-03-18T03:31:03.589Z,94484.00
2024-03-18T03:32:03.694Z,94483.00
2024-03-18T03:33:03.711Z,94483.00
2024-03-18T03:34:03.760Z,94484.00
2024-03-18T03:35:03.845Z,94484.00
2024-03-18T03:36:03.899Z,94485.00
2024-03-18T03:37:03.941Z,94485.00
2024-03-18T03:38:03.976Z,94485.00
2024-03-18T03:39:04.077Z,94485.00
2024-03-18T03:40:04.146Z,94487.00
2024-03-18T03:41:04.173Z,94484.00
2024-03-18T03:42:04.247Z,94484.00
2024-03-18T03:43:04.284Z,94483.00
2024-03-18T03:44:04.337Z,94486.00
2024-03-18T03:45:04.429Z,94485.00
2024-03-18T03:46:04.432Z,94485.00
2024-03-18T03:47:06.478Z,94488.00
2024-03-18T03:48:04.497Z,94490.00
2024-03-18T03:49:04.516Z,94489.00
2024-03-18T03:50:04.530Z,94492.00
2024-03-18T03:51:04.512Z,94491.00
2024-03-18T03:52:04.511Z,94487.00
2024-03-18T03:53:04.509Z,94487.00
2024-03-18T03:54:04.511Z,94485.00
2024-03-18T03:55:04.509Z,94483.00
2024-03-18T03:56:04.524Z,94483.00
2024-03-18T03:57:04.514Z,94485.00
2024-03-18T03:58:05.400Z,94486.00
2024-03-18T03:59:04.512Z,94485.00
2024-03-18T04:00:04.565Z,94486.00
2024-03-18T04:01:04.560Z,94486.00
2024-03-18T04:02:04.527Z,94484.00
2024-03-18T04:03:04.536Z,94485.00
2024-03-18T04:04:04.540Z,94483.00
2024-03-18T04:05:04.522Z,94484.00
2024-03-18T04:06:04.534Z,94485.00
2024-03-18T04:07:04.526Z,94484.00
2024-03-18T04:08:04.537Z,94484.00
2024-03-18T04:09:04.540Z,94484.00
2024-03-18T04:10:04.575Z,94483.00
2024-03-18T04:11:04.532Z,94484.00
2024-03-18T04:12:04.532Z,94485.00
2024-03-18T04:13:04.538Z,94486.00
2024-03-18T04:14:04.548Z,94486.00
2024-03-18T04:15:04.575Z,94487.00
2024-03-18T04:16:04.560Z,94487.00
2024-03-18T04:17:04.544Z,94486.00
2024-03-18T04:18:04.547Z,94484.00
2024-03-18T04:19:04.548Z,94483.00
2024-03-18T04:20:04.567Z,94481.00
2024-03-18T04:21:04.549Z,94480.00
2024-03-18T04:22:04.558Z,94481.00
2024-03-18T04:23:04.563Z,94479.00
2024-03-18T04:24:04.572Z,94478.00
2024-03-18T04:25:04.558Z,94479.00
2024-03-18T04:26:11.788Z,94477.00
2024-03-18T04:27:11.779Z,94478.00
2024-03-18T04:28:11.776Z,94481.00
2024-03-18T04:29:11.796Z,94480.00
2024-03-18T04:30:11.856Z,94481.00
2024-03-18T04:31:19.019Z,94478.00
2024-03-18T04:32:19.029Z,94478.00
2024-03-18T04:33:19.028Z,94478.00
2024-03-18T04:34:19.028Z,94476.00
2024-03-18T04:35:19.032Z,94477.00
2024-03-18T04:36:19.036Z,94475.00
2024-03-18T04:37:19.029Z,94477.00
2024-03-18T04:38:19.033Z,94475.00
2024-03-18T04:39:19.038Z,94475.00
2024-03-18T04:40:19.035Z,94472.00
2024-03-18T04:41:19.043Z,94471.00
2024-03-18T04:42:19.042Z,94469.00
2024-03-18T04:43:19.033Z,94467.00
2024-03-18T04:44:19.045Z,94471.00
2024-03-18T04:45:19.035Z,94468.00
2024-03-18T04:46:19.043Z,94468.00
2024-03-18T04:47:19.063Z,94468.00
2024-03-18T04:48:19.061Z,94467.00
2024-03-18T04:49:19.073Z,94464.00
2024-03-18T04:50:19.070Z,94462.00
2024-03-18T04:51:19.068Z,94460.00
2024-03-18T04:52:19.054Z,94461.00
2024-03-18T04:53:19.059Z,94457.00
2024-03-18T04:54:19.074Z,94457.00
2024-03-18T04:55:19.063Z,94458.00
2024-03-18T04:56:19.077Z,94460.00
2024-03-18T04:57:19.074Z,94459.00
2024-03-18T04:58:19.076Z,94462.00
2024-03-18T04:59:19.079Z,94462.00
2024-03-18T05:00:19.144Z,94461.00
2024-03-18T05:01:19.160Z,94461.00
2024-03-18T05:02:19.166Z,94460.00
2024-03-18T05:03:19.217Z,94459.00
2024-03-18T05:04:19.261Z,94456.00
2024-03-18T05:05:19.299Z,94454.00
2024-03-18T05:06:19.333Z,94454.00
2024-03-18T05:07:19.343Z,94453.00
2024-03-18T05:08:19.377Z,94451.00
2024-03-18T05:09:21.972Z,94453.00
2024-03-18T05:10:19.440Z,94452.00
2024-03-18T05:11:19.470Z,94452.00
2024-03-18T05:12:19.425Z,94451.00
2024-03-18T05:13:19.423Z,94451.00
2024-03-18T05:14:19.427Z,94451.00
2024-03-18T05:15:19.430Z,94449.00
2024-03-18T05:16:22.034Z,94448.00
2024-03-18T05:17:19.453Z,94449.00
2024-03-18T05:18:19.434Z,94447.00
2024-03-18T05:19:19.450Z,94448.00
2024-03-18T05:20:19.442Z,94447.00
2024-03-18T05:21:19.460Z,94447.00
2024-03-18T05:22:19.440Z,94447.00
2024-03-18T05:23:19.470Z,94447.00
2024-03-18T05:24:19.460Z,94447.00
2024-03-18T05:25:19.462Z,94447.00
2024-03-18T05:26:19.459Z,94444.00
2024-03-18T05:27:19.450Z,94439.00
2024-03-18T05:28:19.462Z,94437.00
2024-03-18T05:29:19.465Z,94435.00
2024-03-18T05:30:19.478Z,94433.00
2024-03-18T05:31:19.472Z,94431.00
2024-03-18T05:32:19.473Z,94428.00
2024-03-18T05:33:19.463Z,94429.00
2024-03-18T05:34:19.494Z,94431.00
2024-03-18T05:35:19.487Z,94428.00
2024-03-18T05:36:19.469Z,94429.00
2024-03-18T05:37:19.480Z,94430.00
2024-03-18T05:38:19.505Z,94435.00
2024-03-18T05:39:19.478Z,94436.00
2024-03-18T05:40:19.485Z,94437.00
2024-03-18T05:41:19.567Z,94435.00
2024-03-18T05:42:19.499Z,94437.00
2024-03-18T05:43:19.494Z,94434.00
2024-03-18T05:44:19.482Z,94435.00
2024-03-18T05:45:19.492Z,94435.00
2024-03-18T05:46:19.507Z,94437.00
2024-03-18T05:47:19.500Z,94440.00
2024-03-18T05:48:19.491Z,94440.00
2024-03-18T05:49:19.499Z,94442.00
2024-03-18T05:50:19.592Z,94441.00
2024-03-18T05:51:19.511Z,94442.00
2024-03-18T05:52:19.507Z,94442.00
2024-03-18T05:53:19.504Z,94442.00
2024-03-18T05:54:19.514Z,94441.00
2024-03-18T05:55:19.521Z,94438.00
2024-03-18T05:56:19.607Z,94437.00
2024-03-18T05:57:19.497Z,94438.00
2024-03-18T05:58:19.520Z,94435.00
2024-03-18T05:59:19.500Z,94432.00
2024-03-18T06:00:19.524Z,94432.00
2024-03-18T06:01:19.677Z,94432.00
2024-03-18T06:02:19.511Z,94429.00
2024-03-18T06:03:19.517Z,94427.00
2024-03-18T06:04:19.529Z,94426.00
2024-03-18T06:05:19.518Z,94428.00
2024-03-18T06:06:19.518Z,94425.00
2024-03-18T06:07:19.526Z,94421.00
2024-03-18T06:08:19.527Z,94423.00
2024-03-18T06:09:19.550Z,94423.00
2024-03-18T06:10:19.553Z,94423.00
2024-03-18T06:11:19.535Z,94424.00
2024-03-18T06:12:19.531Z,94427.00
2024-03-18T06:13:19.519Z,94429.00
2024-03-18T06:14:19.527Z,94425.00
2024-03-18T06:15:19.555Z,94424.00
2024-03-18T06:16:19.540Z,94421.00
2024-03-18T06:17:19.534Z,94423.00
2024-03-18T06:18:19.523Z,94420.00
2024-03-18T06:19:19.527Z,94420.00
2024-03-18T06:20:19.534Z,94419.00
2024-03-18T06:21:19.542Z,94419.00
2024-03-18T06:22:19.535Z,94418.00
2024-03-18T06:23:19.546Z,94415.00
2024-03-18T06:24:19.529Z,94414.00
2024-03-18T06:25:19.538Z,94411.00
2024-03-18T06:26:19.717Z,94413.00
2024-03-18T06:27:20.598Z,94411.00
2024-03-18T06:28:19.586Z,94410.00
2024-03-18T06:29:22.221Z,94408.00
2024-03-18T06:30:19.602Z,94408.00
2024-03-18T06:31:19.688Z,94406.00
2024-03-18T06:32:19.687Z,94408.00
2024-03-18T06:33:19.557Z,94405.00
2024-03-18T06:34:19.557Z,94405.00
2024-03-18T06:35:19.722Z,94404.00
2024-03-18T06:36:19.552Z,94403.00
2024-03-18T06:37:19.705Z,94399.00
2024-03-18T06:38:19.560Z,94399.00
2024-03-18T06:39:19.556Z,94399.00
2024-03-18T06:40:20.307Z,94398.00
2024-03-18T06:41:19.571Z,94395.00
2024-03-18T06:42:19.782Z,94396.00
2024-03-18T06:43:19.619Z,94397.00
2024-03-18T06:44:19.628Z,94395.00
2024-03-18T06:45:19.728Z,94398.00
2024-03-18T06:46:19.689Z,94400.00
2024-03-18T06:47:20.252Z,94400.00
2024-03-18T06:48:19.751Z,94402.00
2024-03-18T06:49:19.808Z,94403.00
2024-03-18T06:50:19.854Z,94401.00
2024-03-18T06:51:19.859Z,94398.00
2024-03-18T06:52:19.918Z,94397.00
2024-03-18T06:53:20.707Z,94395.00
2024-03-18T06:54:19.962Z,94392.00
2024-03-18T06:55:20.233Z,94394.00
2024-03-18T06:56:19.982Z,94393.00
2024-03-18T06:57:20.013Z,94394.00
2024-03-18T06:58:20.029Z,94396.00
2024-03-18T06:59:20.060Z,94396.00
2024-03-18T07:00:20.083Z,94397.00
2024-03-18T07:01:20.077Z,94396.00
2024-03-18T07:02:20.097Z,94392.00
2024-03-18T07:03:20.122Z,94393.00
2024-03-18T07:04:20.212Z,94390.00
2024-03-18T07:05:20.121Z,94390.00
2024-03-18T07:06:20.145Z,94388.00
2024-03-18T07:07:20.157Z,94387.00
2024-03-18T07:08:20.152Z,94387.00
2024-03-18T07:09:20.718Z,94387.00
2024-03-18T07:10:20.682Z,94387.00
2024-03-18T07:11:20.193Z,94386.00
2024-03-18T07:12:20.202Z,94385.00
2024-03-18T07:13:20.232Z,94386.00
2024-03-18T07:14:20.254Z,94383.00
2024-03-18T07:15:20.280Z,94383.00
2024-03-18T07:16:20.304Z,94382.00
2024-03-18T07:17:20.352Z,94382.00
2024-03-18T07:18:20.378Z,94380.00
2024-03-18T07:19:20.443Z,94380.00
2024-03-18T07:20:26.200Z,94379.00
2024-03-18T07:21:21.499Z,94380.00
2024-03-18T07:22:20.493Z,94379.00
2024-03-18T07:23:20.478Z,94377.00
2024-03-18T07:24:20.719Z,94376.00
2024-03-18T07:25:20.524Z,94365.00
2024-03-18T07:26:20.498Z,94374.00
2024-03-18T07:27:20.548Z,94371.00
2024-03-18T07:28:20.528Z,94373.00
2024-03-18T07:29:20.713Z,94374.00
2024-03-18T07:30:20.717Z,94365.00
2024-03-18T07:31:20.734Z,94363.00
2024-03-18T07:32:20.568Z,94361.00
2024-03-18T07:33:20.640Z,94363.00
2024-03-18T07:34:20.724Z,94358.00
2024-03-18T07:35:20.797Z,94360.00
2024-03-18T07:36:20.693Z,94358.00
2024-03-18T07:37:20.710Z,94360.00
2024-03-18T07:38:25.940Z,94358.00
2024-03-18T07:39:21.710Z,94359.00
2024-03-18T07:40:20.694Z,94359.00
2024-03-18T07:41:20.733Z,94357.00
2024-03-18T07:42:20.741Z,94356.00
2024-03-18T07:43:20.704Z,94355.00
2024-03-18T07:44:20.709Z,94358.00
2024-03-18T07:45:20.756Z,94356.00
2024-03-18T07:46:20.696Z,94356.00
2024-03-18T07:47:20.706Z,94354.00
2024-03-18T07:48:20.700Z,94354.00
2024-03-18T07:49:20.712Z,94355.00
2024-03-18T07:50:20.726Z,94353.00
2024-03-18T07:51:20.729Z,94354.00
2024-03-18T07:52:20.713Z,94348.00
2024-03-18T07:53:20.720Z,94349.00
2024-03-18T07:54:20.792Z,94348.00
2024-03-18T07:55:20.709Z,94346.00
2024-03-18T07:56:20.729Z,94343.00
2024-03-18T07:57:20.714Z,94341.00
2024-03-18T07:58:20.730Z,94339.00
2024-03-18T07:59:20.716Z,94340.00
2024-03-18T08:00:20.767Z,94337.00
2024-03-18T08:01:20.720Z,94337.00
2024-03-18T08:02:20.717Z,94337.00
2024-03-18T08:03:20.719Z,94335.00
2024-03-18T08:04:20.823Z,94332.00
2024-03-18T08:05:20.737Z,94331.00
2024-03-18T08:06:20.734Z,94330.00
2024-03-18T08:07:20.724Z,94327.00
2024-03-18T08:08:20.737Z,94324.00
2024-03-18T08:09:20.717Z,94324.00
2024-03-18T08:10:20.794Z,94323.00
2024-03-18T08:11:20.732Z,94322.00
2024-03-18T08:12:20.753Z,94322.00
2024-03-18T08:13:20.776Z,94324.00
2024-03-18T08:14:20.787Z,94323.00
2024-03-18T08:15:20.799Z,94321.00
2024-03-18T08:16:20.812Z,94323.00
2024-03-18T08:17:20.841Z,94322.00
2024-03-18T08:18:20.842Z,94322.00
2024-03-18T08:19:20.865Z,94320.00
2024-03-18T08:20:21.245Z,94318.00
2024-03-18T08:21:20.890Z,94318.00
2024-03-18T08:22:21.366Z,94316.00
2024-03-18T08:23:20.905Z,94319.00
2024-03-18T08:24:20.933Z,94318.00
2024-03-18T08:25:21.266Z,94317.00
2024-03-18T08:26:21.235Z,94318.00
2024-03-18T08:27:21.016Z,94317.00
2024-03-18T08:28:21.005Z,94318.00
2024-03-18T08:29:21.019Z,94317.00
2024-03-18T08:30:21.086Z,94317.00
2024-03-18T08:31:21.304Z,94318.00
2024-03-18T08:32:21.099Z,94317.00
2024-03-18T08:33:26.859Z,94316.00
2024-03-18T08:34:22.101Z,94316.00
2024-03-18T08:35:21.162Z,94314.00
2024-03-18T08:36:21.238Z,94311.00
2024-03-18T08:37:21.111Z,94309.00
2024-03-18T08:38:21.092Z,94307.00
2024-03-18T08:39:21.101Z,94305.00
2024-03-18T08:40:21.115Z,94305.00
2024-03-18T08:41:21.255Z,94300.00
2024-03-18T08:42:21.114Z,94298.00
2024-03-18T08:43:21.129Z,94299.00
2024-03-18T08:44:21.121Z,94296.00
2024-03-18T08:45:21.105Z,94295.00
2024-03-18T08:46:21.268Z,94293.00
2024-03-18T08:47:21.126Z,94290.00
2024-03-18T08:48:21.124Z,94287.00
2024-03-18T08:49:21.119Z,94289.00
2024-03-18T08:50:21.117Z,94286.00
2024-03-18T08:51:21.124Z,94285.00
2024-03-18T08:52:21.124Z,94283.00
2024-03-18T08:53:21.142Z,94281.00
2024-03-18T08:54:21.117Z,94280.00
2024-03-18T08:55:21.143Z,94279.00
2024-03-18T08:56:21.138Z,94277.00
2024-03-18T08:57:21.130Z,94278.00
2024-03-18T08:58:21.187Z,94275.00
2024-03-18T08:59:21.195Z,94272.00
2024-03-18T09:00:21.150Z,94273.00
2024-03-18T09:01:21.144Z,94271.00
2024-03-18T09:02:21.200Z,94270.00
2024-03-18T09:03:21.131Z,94268.00
2024-03-18T09:04:21.153Z,94267.00
2024-03-18T09:05:21.165Z,94265.00
2024-03-18T09:06:21.195Z,94268.00
2024-03-18T09:07:21.228Z,94270.00
2024-03-18T09:08:21.214Z,94269.00
2024-03-18T09:09:21.265Z,94268.00
2024-03-18T09:10:21.253Z,94268.00
2024-03-18T09:11:21.259Z,94264.00
2024-03-18T09:12:21.354Z,94267.00
2024-03-18T09:13:21.282Z,94266.00
2024-03-18T09:14:21.298Z,94261.00
2024-03-18T09:15:21.312Z,94260.00
2024-03-18T09:16:21.337Z,94258.00
2024-03-18T09:17:21.348Z,94256.00
2024-03-18T09:18:21.376Z,94257.00
2024-03-18T09:19:21.384Z,94253.00
2024-03-18T09:20:21.418Z,94251.00
2024-03-18T09:21:21.810Z,94250.00
2024-03-18T09:22:21.442Z,94253.00
2024-03-18T09:23:21.493Z,94251.00
2024-03-18T09:24:21.550Z,94251.00
2024-03-18T09:25:21.609Z,94249.00
2024-03-18T09:26:21.762Z,94248.00
2024-03-18T09:27:21.707Z,94247.00
2024-03-18T09:28:21.758Z,94245.00
2024-03-18T09:29:21.820Z,94244.00
2024-03-18T09:30:21.881Z,94244.00
2024-03-18T09:31:21.961Z,94244.00
2024-03-18T09:32:21.991Z,94245.00
2024-03-18T09:33:22.085Z,94246.00
2024-03-18T09:34:22.076Z,94243.00
2024-03-18T09:35:22.129Z,94244.00
2024-03-18T09:36:22.281Z,94244.00
2024-03-18T09:37:22.229Z,94243.00
2024-03-18T09:38:22.220Z,94245.00
2024-03-18T09:39:22.782Z,94241.00
2024-03-18T09:40:23.790Z,94240.00
2024-03-18T09:41:22.849Z,94241.00
2024-03-18T09:42:22.325Z,94237.00
2024-03-18T09:43:23.188Z,94237.00
2024-03-18T09:44:22.423Z,94236.00
2024-03-18T09:45:22.510Z,94234.00
2024-03-18T09:46:22.553Z,94232.00
2024-03-18T09:47:31.851Z,94232.00
2024-03-18T09:48:23.600Z,94230.00
2024-03-18T09:49:22.608Z,94228.00
2024-03-18T09:50:22.613Z,94225.00
2024-03-18T09:51:22.619Z,94223.00
2024-03-18T09:52:22.685Z,94222.00
2024-03-18T09:53:22.618Z,94221.00
2024-03-18T09:54:22.619Z,94218.00
2024-03-18T09:55:22.615Z,94218.00
2024-03-18T09:56:22.606Z,94217.00
2024-03-18T09:57:22.698Z,94219.00
2024-03-18T09:58:22.603Z,94219.00
2024-03-18T09:59:22.629Z,94217.00
2024-03-18T10:00:22.670Z,94218.00
2024-03-18T10:01:22.634Z,94219.00
2024-03-18T10:02:22.630Z,94219.00
2024-03-18T10:03:22.637Z,94221.00
2024-03-18T10:04:22.663Z,94219.00
2024-03-18T10:05:22.666Z,94213.00
2024-03-18T10:06:22.722Z,94212.00
2024-03-18T10:07:22.754Z,94210.00
2024-03-18T10:08:22.785Z,94210.00
2024-03-18T10:09:22.907Z,94210.00
2024-03-18T10:10:23.698Z,94209.00
2024-03-18T10:11:22.889Z,94208.00
2024-03-18T10:12:22.931Z,94208.00
2024-03-18T10:13:22.955Z,94209.00
2024-03-18T10:14:22.966Z,94208.00
2024-03-18T10:15:23.009Z,94204.00
2024-03-18T10:16:22.997Z,94205.00
2024-03-18T10:17:23.019Z,94205.00
2024-03-18T10:18:23.035Z,94205.00
2024-03-18T10:19:23.076Z,94203.00
2024-03-18T10:20:24.275Z,94205.00
2024-03-18T10:21:23.106Z,94202.00
2024-03-18T10:22:23.168Z,94205.00
2024-03-18T10:23:23.158Z,94204.00
2024-03-18T10:24:23.156Z,94200.00
2024-03-18T10:25:23.182Z,94203.00
2024-03-18T10:26:23.375Z,94203.00
2024-03-18T10:27:23.303Z,94203.00
2024-03-18T10:28:23.236Z,94203.00
2024-03-18T10:29:23.247Z,94202.00
2024-03-18T10:30:23.262Z,94202.00
2024-03-18T10:31:23.308Z,94204.00
2024-03-18T10:32:23.382Z,94202.00
2024-03-18T10:33:23.322Z,94204.00
2024-03-18T10:34:23.374Z,94205.00
2024-03-18T10:35:23.381Z,94207.00
2024-03-18T10:36:23.795Z,94206.00
2024-03-18T10:37:23.426Z,94205.00
2024-03-18T10:38:24.086Z,94203.00
2024-03-18T10:39:23.504Z,94204.00
2024-03-18T10:40:23.531Z,94202.00
2024-03-18T10:41:23.624Z,94202.00
2024-03-18T10:42:23.750Z,94200.00
2024-03-18T10:43:23.684Z,94202.00
2024-03-18T10:44:23.727Z,94200.00
2024-03-18T10:45:23.882Z,94199.00
2024-03-18T10:46:23.847Z,94200.00
2024-03-18T10:47:23.885Z,94201.00
2024-03-18T10:48:23.934Z,94199.00
2024-03-18T10:49:23.988Z,94204.00
2024-03-18T10:50:24.037Z,94202.00
2024-03-18T10:51:24.299Z,94205.00
2024-03-18T10:52:24.144Z,94204.00
2024-03-18T10:53:24.202Z,94203.00
2024-03-18T10:54:24.324Z,94201.00
2024-03-18T10:55:25.185Z,94205.00
2024-03-18T10:56:24.411Z,94204.00
2024-03-18T10:57:24.432Z,94204.00
2024-03-18T10:58:24.501Z,94204.00
2024-03-18T10:59:24.555Z,94204.00
2024-03-18T11:00:24.606Z,94206.00
2024-03-18T11:01:24.672Z,94205.00
2024-03-18T11:02:24.755Z,94206.00
2024-03-18T11:03:24.785Z,94204.00
2024-03-18T11:04:24.859Z,94199.00
2024-03-18T11:05:24.907Z,94200.00
2024-03-18T11:06:24.982Z,94200.00
2024-03-18T11:07:25.027Z,94199.00
2024-03-18T11:08:25.112Z,94199.00
2024-03-18T11:09:25.175Z,94200.00
2024-03-18T11:10:25.223Z,94201.00
2024-03-18T11:11:25.304Z,94200.00
2024-03-18T11:12:25.353Z,94200.00
2024-03-18T11:13:25.410Z,94198.00
2024-03-18T11:14:25.496Z,94200.00
2024-03-18T11:15:25.591Z,94199.00
2024-03-18T11:16:25.650Z,94198.00
2024-03-18T11:17:25.669Z,94198.00
2024-03-18T11:18:25.727Z,94196.00
2024-03-18T11:19:25.803Z,94198.00
2024-03-18T11:20:25.884Z,94197.00
2024-03-18T11:21:26.329Z,94198.00
2024-03-18T11:22:26.013Z,94199.00
2024-03-18T11:23:26.038Z,94196.00
2024-03-18T11:24:26.086Z,94198.00
2024-03-18T11:25:26.145Z,94195.00
2024-03-18T11:26:26.336Z,94195.00
2024-03-18T11:27:26.256Z,94193.00
2024-03-18T11:28:26.290Z,94194.00
2024-03-18T11:29:26.348Z,94195.00
2024-03-18T11:30:26.439Z,94195.00
2024-03-18T11:31:26.485Z,94194.00
2024-03-18T11:32:26.535Z,94195.00
2024-03-18T11:33:26.585Z,94193.00
2024-03-18T11:34:26.659Z,94195.00
2024-03-18T11:35:26.727Z,94196.00
2024-03-18T11:36:26.832Z,94196.00
2024-03-18T11:37:26.813Z,94197.00
2024-03-18T11:38:26.864Z,94198.00
2024-03-18T11:39:26.917Z,94196.00
2024-03-18T11:40:26.959Z,94195.00
2024-03-18T11:41:27.013Z,94194.00
2024-03-18T11:42:27.082Z,94195.00
2024-03-18T11:43:27.105Z,94191.00
2024-03-18T11:44:27.159Z,94191.00
2024-03-18T11:45:27.219Z,94189.00